createdAt,value
2019-02-03T00:00:39.366Z,979.37
2019-02-03T00:01:39.288Z,979.36
2019-02-03T00:02:39.204Z,979.36
2019-02-03T00:03:39.119Z,979.39
2019-02-03T00:04:39.038Z,979.37
2019-02-03T00:05:38.955Z,979.36
2019-02-03T00:06:38.873Z,979.41
2019-02-03T00:07:38.790Z,979.42
2019-02-03T00:08:38.708Z,979.42
2019-02-03T00:09:38.625Z,979.42
2019-02-03T00:10:38.544Z,979.41
2019-02-03T00:11:38.462Z,979.47
2019-02-03T00:12:38.377Z,979.45
2019-02-03T00:13:38.296Z,979.46
2019-02-03T00:14:38.564Z,979.45
2019-02-03T00:15:38.130Z,979.50
2019-02-03T00:16:38.047Z,979.54
2019-02-03T00:17:37.966Z,979.50
2019-02-03T00:18:37.882Z,979.51
2019-02-03T00:19:37.799Z,979.53
2019-02-03T00:20:37.719Z,979.55
2019-02-03T00:21:37.636Z,979.50
2019-02-03T00:22:37.554Z,979.52
2019-02-03T00:23:37.470Z,979.57
2019-02-03T00:24:37.387Z,979.50
2019-02-03T00:25:37.305Z,979.54
2019-02-03T00:26:37.223Z,979.53
2019-02-03T00:27:37.139Z,979.57
2019-02-03T00:28:37.059Z,979.59
2019-02-03T00:29:36.976Z,979.57
2019-02-03T00:30:36.896Z,979.57
2019-02-03T00:31:36.811Z,979.57
2019-02-03T00:32:36.727Z,979.62
2019-02-03T00:33:36.643Z,979.56
2019-02-03T00:34:36.561Z,979.56
2019-02-03T00:35:36.479Z,979.55
2019-02-03T00:36:36.398Z,979.53
2019-02-03T00:37:36.340Z,979.51
2019-02-03T00:38:36.238Z,979.45
2019-02-03T00:39:36.261Z,979.46
2019-02-03T00:40:36.078Z,979.45
2019-02-03T00:41:35.984Z,979.44
2019-02-03T00:42:35.899Z,979.42
2019-02-03T00:43:35.815Z,979.40
2019-02-03T00:44:35.735Z,979.42
2019-02-03T00:45:35.652Z,979.37
2019-02-03T00:46:35.567Z,979.38
2019-02-03T00:47:35.485Z,979.38
2019-02-03T00:48:35.400Z,979.38
2019-02-03T00:49:35.319Z,979.40
2019-02-03T00:50:35.240Z,979.38
2019-02-03T00:51:35.152Z,979.43
2019-02-03T00:52:35.070Z,979.43
2019-02-03T00:53:34.987Z,979.48
2019-02-03T00:54:34.904Z,979.47
2019-02-03T00:55:34.822Z,979.48
2019-02-03T00:56:34.738Z,979.50
2019-02-03T00:57:34.655Z,979.48
2019-02-03T00:58:34.573Z,979.50
2019-02-03T00:59:34.492Z,979.48
2019-02-03T01:00:34.406Z,979.52
2019-02-03T01:01:34.374Z,979.56
2019-02-03T01:02:34.241Z,979.53
2019-02-03T01:03:34.161Z,979.62
2019-02-03T01:04:34.073Z,979.65
2019-02-03T01:05:33.992Z,979.66
2019-02-03T01:06:33.908Z,979.70
2019-02-03T01:07:33.828Z,979.71
2019-02-03T01:08:33.741Z,979.70
2019-02-03T01:09:33.985Z,979.72
2019-02-03T01:10:33.576Z,979.74
2019-02-03T01:11:33.490Z,979.71
2019-02-03T01:12:33.408Z,979.73
2019-02-03T01:13:33.326Z,979.72
2019-02-03T01:14:33.243Z,979.79
2019-02-03T01:15:33.160Z,979.78
2019-02-03T01:16:33.176Z,979.80
2019-02-03T01:17:32.993Z,979.81
2019-02-03T01:18:32.910Z,979.81
2019-02-03T01:19:32.826Z,979.79
2019-02-03T01:20:32.743Z,979.77
2019-02-03T01:21:32.709Z,979.81
2019-02-03T01:22:32.577Z,979.82
2019-02-03T01:23:32.505Z,979.84
2019-02-03T01:24:32.409Z,979.84
2019-02-03T01:25:32.328Z,979.90
2019-02-03T01:26:32.244Z,979.90
2019-02-03T01:27:32.163Z,979.90
2019-02-03T01:28:32.077Z,979.95
2019-02-03T01:29:31.994Z,979.93
2019-02-03T01:30:31.910Z,979.90
2019-02-03T01:31:31.827Z,979.93
2019-02-03T01:32:31.749Z,979.94
2019-02-03T01:33:31.661Z,979.92
2019-02-03T01:34:31.576Z,979.93
2019-02-03T01:35:31.494Z,979.90
2019-02-03T01:36:31.407Z,979.92
2019-02-03T01:37:39.151Z,979.92
2019-02-03T01:38:31.243Z,979.91
2019-02-03T01:39:31.157Z,979.87
2019-02-03T01:40:31.075Z,979.90
2019-02-03T01:41:30.992Z,979.86
2019-02-03T01:42:30.907Z,979.87
2019-02-03T01:43:30.823Z,979.89
2019-02-03T01:44:30.739Z,979.94
2019-02-03T01:45:30.656Z,979.94
2019-02-03T01:46:30.573Z,979.86
2019-02-03T01:47:30.488Z,979.88
2019-02-03T01:48:30.405Z,979.82
2019-02-03T01:49:30.320Z,979.81
2019-02-03T01:50:30.240Z,979.83
2019-02-03T01:51:30.154Z,979.82
2019-02-03T01:52:30.070Z,979.84
2019-02-03T01:53:29.986Z,979.85
2019-02-03T01:54:29.903Z,979.73
2019-02-03T01:55:29.819Z,979.82
2019-02-03T01:56:29.735Z,979.77
2019-02-03T01:57:29.651Z,979.83
2019-02-03T01:58:29.568Z,979.82
2019-02-03T01:59:29.483Z,979.90
2019-02-03T02:00:29.400Z,979.91
2019-02-03T02:01:29.317Z,979.91
2019-02-03T02:02:29.234Z,979.93
2019-02-03T02:03:29.149Z,979.98
2019-02-03T02:04:29.064Z,980.04
2019-02-03T02:05:28.981Z,980.03
2019-02-03T02:06:28.897Z,980.08
2019-02-03T02:07:28.812Z,980.05
2019-02-03T02:08:28.732Z,980.08
2019-02-03T02:09:28.650Z,980.07
2019-02-03T02:10:28.569Z,980.07
2019-02-03T02:11:28.477Z,980.12
2019-02-03T02:12:28.443Z,980.07
2019-02-03T02:13:28.312Z,980.09
2019-02-03T02:14:28.227Z,980.07
2019-02-03T02:15:28.143Z,980.04
2019-02-03T02:16:28.058Z,980.00
2019-02-03T02:17:27.975Z,980.02
2019-02-03T02:18:27.893Z,980.06
2019-02-03T02:19:27.806Z,980.08
2019-02-03T02:20:27.725Z,980.09
2019-02-03T02:21:27.638Z,980.11
2019-02-03T02:22:27.555Z,980.11
2019-02-03T02:23:27.470Z,980.13
2019-02-03T02:24:27.387Z,980.15
2019-02-03T02:25:27.305Z,980.17
2019-02-03T02:26:27.276Z,980.13
2019-02-03T02:27:27.134Z,980.30
2019-02-03T02:28:27.050Z,980.34
2019-02-03T02:29:26.967Z,980.37
2019-02-03T02:30:26.882Z,980.45
2019-02-03T02:31:26.798Z,980.46
2019-02-03T02:32:26.714Z,980.55
2019-02-03T02:33:26.631Z,980.59
2019-02-03T02:34:26.545Z,980.56
2019-02-03T02:35:26.462Z,980.57
2019-02-03T02:36:26.379Z,980.63
2019-02-03T02:37:26.294Z,980.65
2019-02-03T02:38:26.209Z,980.66
2019-02-03T02:39:26.123Z,980.80
2019-02-03T02:40:26.040Z,980.78
2019-02-03T02:41:25.956Z,980.84
2019-02-03T02:42:25.925Z,980.88
2019-02-03T02:43:25.788Z,980.90
2019-02-03T02:44:25.714Z,980.99
2019-02-03T02:45:25.618Z,980.96
2019-02-03T02:46:25.537Z,980.95
2019-02-03T02:47:25.452Z,981.02
2019-02-03T02:48:25.367Z,980.98
2019-02-03T02:49:25.283Z,980.98
2019-02-03T02:50:25.197Z,981.00
2019-02-03T02:51:25.114Z,981.03
2019-02-03T02:52:25.079Z,981.07
2019-02-03T02:53:24.948Z,981.06
2019-02-03T02:54:24.863Z,981.15
2019-02-03T02:55:24.777Z,981.17
2019-02-03T02:56:24.692Z,981.23
2019-02-03T02:57:24.659Z,981.22
2019-02-03T02:58:24.523Z,981.22
2019-02-03T02:59:24.438Z,981.24
2019-02-03T03:00:24.356Z,981.25
2019-02-03T03:01:24.274Z,981.29
2019-02-03T03:02:24.187Z,981.26
2019-02-03T03:03:24.103Z,981.27
2019-02-03T03:04:24.018Z,981.28
2019-02-03T03:05:23.935Z,981.31
2019-02-03T03:06:23.849Z,981.38
2019-02-03T03:07:23.764Z,981.44
2019-02-03T03:08:23.685Z,981.49
2019-02-03T03:09:23.596Z,981.49
2019-02-03T03:10:23.514Z,981.57
2019-02-03T03:11:23.426Z,981.59
2019-02-03T03:12:23.341Z,981.66
2019-02-03T03:13:23.259Z,981.70
2019-02-03T03:14:23.175Z,981.71
2019-02-03T03:15:23.088Z,981.70
2019-02-03T03:16:23.005Z,981.70
2019-02-03T03:17:22.923Z,981.70
2019-02-03T03:18:22.837Z,981.67
2019-02-03T03:19:22.752Z,981.67
2019-02-03T03:20:22.672Z,981.69
2019-02-03T03:21:22.584Z,981.68
2019-02-03T03:22:22.500Z,981.76
2019-02-03T03:23:22.415Z,981.78
2019-02-03T03:24:22.338Z,981.78
2019-02-03T03:25:22.250Z,981.84
2019-02-03T03:26:22.162Z,981.82
2019-02-03T03:27:22.077Z,981.75
2019-02-03T03:28:21.992Z,981.79
2019-02-03T03:29:21.908Z,981.80
2019-02-03T03:30:21.848Z,981.82
2019-02-03T03:31:21.743Z,981.80
2019-02-03T03:32:21.680Z,981.84
2019-02-03T03:33:21.592Z,981.83
2019-02-03T03:34:21.489Z,981.89
2019-02-03T03:35:21.402Z,981.91
2019-02-03T03:36:21.318Z,981.97
2019-02-03T03:37:21.234Z,981.91
2019-02-03T03:38:31.761Z,981.94
2019-02-03T03:39:21.066Z,982.01
2019-02-03T03:40:20.981Z,981.97
2019-02-03T03:41:20.897Z,982.07
2019-02-03T03:42:20.813Z,982.06
2019-02-03T03:43:20.731Z,982.06
2019-02-03T03:44:20.643Z,982.08
2019-02-03T03:45:20.562Z,982.08
2019-02-03T03:46:20.476Z,982.08
2019-02-03T03:47:20.391Z,982.12
2019-02-03T03:48:20.306Z,982.11
2019-02-03T03:49:20.271Z,982.12
2019-02-03T03:50:20.146Z,982.16
2019-02-03T03:51:20.053Z,982.16
2019-02-03T03:52:19.979Z,982.17
2019-02-03T03:53:19.883Z,982.27
2019-02-03T03:54:19.802Z,982.22
2019-02-03T03:55:19.715Z,982.21
2019-02-03T03:56:19.632Z,982.23
2019-02-03T03:57:19.547Z,982.30
2019-02-03T03:58:19.464Z,982.26
2019-02-03T03:59:19.482Z,982.28
2019-02-03T04:00:19.292Z,982.27
2019-02-03T04:01:19.209Z,982.30
2019-02-03T04:02:19.123Z,982.28
2019-02-03T04:03:19.037Z,982.28
2019-02-03T04:04:18.953Z,982.31
2019-02-03T04:05:18.869Z,982.34
2019-02-03T04:06:18.784Z,982.38
2019-02-03T04:07:18.700Z,982.42
2019-02-03T04:08:18.617Z,982.43
2019-02-03T04:09:18.532Z,982.48
2019-02-03T04:10:18.454Z,982.44
2019-02-03T04:11:18.362Z,982.47
2019-02-03T04:12:18.277Z,982.45
2019-02-03T04:13:18.200Z,982.42
2019-02-03T04:14:18.108Z,982.39
2019-02-03T04:15:18.024Z,982.43
2019-02-03T04:16:17.975Z,982.44
2019-02-03T04:17:17.972Z,982.48
2019-02-03T04:18:17.773Z,982.44
2019-02-03T04:19:17.691Z,982.47
2019-02-03T04:20:17.601Z,982.45
2019-02-03T04:21:17.516Z,982.50
2019-02-03T04:22:17.434Z,982.39
2019-02-03T04:23:17.346Z,982.45
2019-02-03T04:24:17.263Z,982.44
2019-02-03T04:25:17.180Z,982.46
2019-02-03T04:26:17.095Z,982.46
2019-02-03T04:27:17.015Z,982.51
2019-02-03T04:28:16.950Z,982.52
2019-02-03T04:29:16.940Z,982.52
2019-02-03T04:30:16.755Z,982.54
2019-02-03T04:31:16.670Z,982.53
2019-02-03T04:32:16.583Z,982.54
2019-02-03T04:33:16.502Z,982.59
2019-02-03T04:34:16.415Z,982.58
2019-02-03T04:35:16.331Z,982.58
2019-02-03T04:36:16.245Z,982.59
2019-02-03T04:37:16.161Z,982.57
2019-02-03T04:38:16.074Z,982.57
2019-02-03T04:39:15.992Z,982.64
2019-02-03T04:40:15.908Z,982.58
2019-02-03T04:41:15.821Z,982.64
2019-02-03T04:42:15.738Z,982.57
2019-02-03T04:43:15.661Z,982.69
2019-02-03T04:44:15.566Z,982.65
2019-02-03T04:45:15.487Z,982.72
2019-02-03T04:46:15.402Z,982.74
2019-02-03T04:47:15.313Z,982.77
2019-02-03T04:48:15.228Z,982.80
2019-02-03T04:49:15.143Z,982.78
2019-02-03T04:50:15.057Z,982.76
2019-02-03T04:51:15.072Z,982.78
2019-02-03T04:52:14.887Z,982.82
2019-02-03T04:53:14.804Z,982.81
2019-02-03T04:54:14.718Z,982.85
2019-02-03T04:55:14.633Z,982.91
2019-02-03T04:56:14.549Z,982.91
2019-02-03T04:57:14.538Z,982.91
2019-02-03T04:58:14.378Z,982.87
2019-02-03T04:59:14.293Z,982.93
2019-02-03T05:00:14.209Z,982.93
2019-02-03T05:01:14.126Z,982.99
2019-02-03T05:02:14.039Z,982.97
2019-02-03T05:03:13.953Z,982.97
2019-02-03T05:04:13.869Z,982.96
2019-02-03T05:05:13.784Z,983.00
2019-02-03T05:06:13.698Z,983.03
2019-02-03T05:07:13.614Z,983.01
2019-02-03T05:08:13.537Z,983.05
2019-02-03T05:09:13.444Z,983.06
2019-02-03T05:10:13.361Z,983.08
2019-02-03T05:11:13.274Z,983.13
2019-02-03T05:12:13.189Z,983.18
2019-02-03T05:13:13.110Z,983.15
2019-02-03T05:14:13.021Z,983.16
2019-02-03T05:15:12.935Z,983.22
2019-02-03T05:16:12.850Z,983.18
2019-02-03T05:17:12.785Z,983.18
2019-02-03T05:18:12.683Z,983.23
2019-02-03T05:19:12.597Z,983.24
2019-02-03T05:20:12.510Z,983.28
2019-02-03T05:21:12.438Z,983.26
2019-02-03T05:22:12.341Z,983.24
2019-02-03T05:23:12.256Z,983.23
2019-02-03T05:24:12.220Z,983.25
2019-02-03T05:25:12.086Z,983.31
2019-02-03T05:26:12.001Z,983.34
2019-02-03T05:27:11.913Z,983.27
2019-02-03T05:28:11.831Z,983.36
2019-02-03T05:29:11.747Z,983.36
2019-02-03T05:30:11.662Z,983.40
2019-02-03T05:31:11.577Z,983.43
2019-02-03T05:32:11.494Z,983.47
2019-02-03T05:33:11.406Z,983.44
2019-02-03T05:34:11.321Z,983.48
2019-02-03T05:35:11.237Z,983.48
2019-02-03T05:36:11.151Z,983.56
2019-02-03T05:37:11.067Z,983.56
2019-02-03T05:38:10.981Z,983.63
2019-02-03T05:39:24.025Z,983.59
2019-02-03T05:40:10.810Z,983.68
2019-02-03T05:41:10.726Z,983.71
2019-02-03T05:42:10.642Z,983.74
2019-02-03T05:43:10.557Z,983.74
2019-02-03T05:44:10.471Z,983.76
2019-02-03T05:45:10.496Z,983.79
2019-02-03T05:46:10.301Z,983.80
2019-02-03T05:47:10.215Z,983.81
2019-02-03T05:48:10.130Z,983.90
2019-02-03T05:49:10.047Z,983.83
2019-02-03T05:50:09.960Z,983.89
2019-02-03T05:51:09.970Z,983.89
2019-02-03T05:52:09.790Z,983.88
2019-02-03T05:53:09.704Z,983.86
2019-02-03T05:54:09.620Z,983.89
2019-02-03T05:55:09.946Z,983.86
2019-02-03T05:56:09.449Z,983.88
2019-02-03T05:57:09.365Z,983.87
2019-02-03T05:58:09.280Z,983.94
2019-02-03T05:59:09.194Z,983.96
2019-02-03T06:00:09.255Z,983.97
2019-02-03T06:01:09.025Z,983.99
2019-02-03T06:02:10.085Z,983.99
2019-02-03T06:03:08.856Z,984.00
2019-02-03T06:04:08.771Z,983.98
2019-02-03T06:05:08.684Z,984.02
2019-02-03T06:06:08.599Z,984.05
2019-02-03T06:07:08.515Z,984.06
2019-02-03T06:08:08.431Z,984.08
2019-02-03T06:09:08.346Z,984.02
2019-02-03T06:10:08.258Z,984.08
2019-02-03T06:11:08.176Z,984.11
2019-02-03T06:12:08.089Z,984.17
2019-02-03T06:13:08.005Z,984.19
2019-02-03T06:14:07.920Z,984.26
2019-02-03T06:15:07.835Z,984.24
2019-02-03T06:16:07.751Z,984.27
2019-02-03T06:17:07.665Z,984.24
2019-02-03T06:18:07.583Z,984.34
2019-02-03T06:19:07.493Z,984.29
2019-02-03T06:20:07.411Z,984.37
2019-02-03T06:21:07.323Z,984.38
2019-02-03T06:22:07.240Z,984.33
2019-02-03T06:23:07.152Z,984.38
2019-02-03T06:24:07.072Z,984.36
2019-02-03T06:25:06.993Z,984.44
2019-02-03T06:26:06.897Z,984.45
2019-02-03T06:27:06.812Z,984.47
2019-02-03T06:28:06.727Z,984.45
2019-02-03T06:29:06.642Z,984.48
2019-02-03T06:30:06.559Z,984.45
2019-02-03T06:31:06.472Z,984.48
2019-02-03T06:32:06.392Z,984.49
2019-02-03T06:33:06.307Z,984.49
2019-02-03T06:34:06.218Z,984.47
2019-02-03T06:35:06.135Z,984.55
2019-02-03T06:36:06.047Z,984.60
2019-02-03T06:37:05.966Z,984.62
2019-02-03T06:38:05.877Z,984.63
2019-02-03T06:39:05.791Z,984.63
2019-02-03T06:40:05.705Z,984.68
2019-02-03T06:41:05.622Z,984.69
2019-02-03T06:42:05.538Z,984.65
2019-02-03T06:43:05.450Z,984.71
2019-02-03T06:44:05.368Z,984.70
2019-02-03T06:45:05.282Z,984.76
2019-02-03T06:46:05.197Z,984.80
2019-02-03T06:47:05.112Z,984.86
2019-02-03T06:48:05.027Z,984.91
2019-02-03T06:49:04.941Z,984.90
2019-02-03T06:50:04.856Z,984.92
2019-02-03T06:51:04.771Z,984.93
2019-02-03T06:52:04.686Z,984.93
2019-02-03T06:53:04.602Z,985.05
2019-02-03T06:54:04.516Z,985.04
2019-02-03T06:55:04.431Z,985.07
2019-02-03T06:56:04.346Z,985.12
2019-02-03T06:57:04.263Z,985.16
2019-02-03T06:58:04.177Z,985.15
2019-02-03T06:59:04.093Z,985.21
2019-02-03T07:00:04.008Z,985.19
2019-02-03T07:01:03.922Z,985.23
2019-02-03T07:02:03.838Z,985.28
2019-02-03T07:03:03.801Z,985.29
2019-02-03T07:04:03.669Z,985.32
2019-02-03T07:05:03.581Z,985.37
2019-02-03T07:06:03.497Z,985.44
2019-02-03T07:07:03.415Z,985.50
2019-02-03T07:08:03.328Z,985.53
2019-02-03T07:09:03.344Z,985.58
2019-02-03T07:10:03.156Z,985.57
2019-02-03T07:11:03.071Z,985.67
2019-02-03T07:12:02.991Z,985.73
2019-02-03T07:13:02.901Z,985.72
2019-02-03T07:14:02.829Z,985.73
2019-02-03T07:15:02.734Z,985.74
2019-02-03T07:16:02.646Z,985.78
2019-02-03T07:17:02.561Z,985.78
2019-02-03T07:18:02.481Z,985.80
2019-02-03T07:19:02.395Z,985.85
2019-02-03T07:20:02.306Z,985.89
2019-02-03T07:21:02.222Z,985.93
2019-02-03T07:22:02.138Z,985.94
2019-02-03T07:23:02.055Z,985.92
2019-02-03T07:24:01.965Z,985.88
2019-02-03T07:25:01.883Z,985.94
2019-02-03T07:26:01.797Z,985.98
2019-02-03T07:27:01.713Z,986.02
2019-02-03T07:28:01.629Z,986.02
2019-02-03T07:29:01.542Z,986.04
2019-02-03T07:30:01.456Z,986.11
2019-02-03T07:31:01.370Z,986.14
2019-02-03T07:32:01.286Z,986.14
2019-02-03T07:33:01.201Z,986.17
2019-02-03T07:34:01.117Z,986.18
2019-02-03T07:35:01.033Z,986.28
2019-02-03T07:36:00.946Z,986.35
2019-02-03T07:37:00.862Z,986.35
2019-02-03T07:38:00.779Z,986.37
2019-02-03T07:39:00.691Z,986.45
2019-02-03T07:40:11.689Z,986.43
2019-02-03T07:41:00.524Z,986.47
2019-02-03T07:42:00.438Z,986.43
2019-02-03T07:43:00.353Z,986.47
2019-02-03T07:44:00.269Z,986.42
2019-02-03T07:45:00.197Z,986.40
2019-02-03T07:46:00.100Z,986.44
2019-02-03T07:47:00.012Z,986.40
2019-02-03T07:47:59.928Z,986.41
2019-02-03T07:48:59.844Z,986.41
2019-02-03T07:49:59.758Z,986.49
2019-02-03T07:50:59.672Z,986.52
2019-02-03T07:51:59.590Z,986.52
2019-02-03T07:52:59.504Z,986.52
2019-02-03T07:54:08.049Z,986.50
2019-02-03T07:54:59.334Z,986.50
2019-02-03T07:55:59.252Z,986.52
2019-02-03T07:56:59.166Z,986.60
2019-02-03T07:57:59.080Z,986.61
2019-02-03T07:58:58.994Z,986.61
2019-02-03T07:59:58.909Z,986.65
2019-02-03T08:00:58.826Z,986.64
2019-02-03T08:01:58.741Z,986.68
2019-02-03T08:02:58.655Z,986.71
2019-02-03T08:03:58.571Z,986.79
2019-02-03T08:04:58.486Z,986.79
2019-02-03T08:05:58.403Z,986.84
2019-02-03T08:06:58.317Z,986.88
2019-02-03T08:07:58.232Z,986.92
2019-02-03T08:08:58.299Z,986.96
2019-02-03T08:09:58.062Z,986.94
2019-02-03T08:10:57.978Z,986.98
2019-02-03T08:11:57.894Z,987.02
2019-02-03T08:12:57.809Z,987.07
2019-02-03T08:13:57.728Z,987.13
2019-02-03T08:14:57.643Z,987.05
2019-02-03T08:15:57.556Z,987.19
2019-02-03T08:16:57.571Z,987.13
2019-02-03T08:17:57.387Z,987.17
2019-02-03T08:18:57.302Z,987.16
2019-02-03T08:19:57.216Z,987.17
2019-02-03T08:20:57.131Z,987.19
2019-02-03T08:21:57.046Z,987.20
2019-02-03T08:22:56.963Z,987.20
2019-02-03T08:23:56.878Z,987.28
2019-02-03T08:24:56.793Z,987.21
2019-02-03T08:25:56.709Z,987.19
2019-02-03T08:26:56.631Z,987.28
2019-02-03T08:27:56.539Z,987.28
2019-02-03T08:28:56.457Z,987.35
2019-02-03T08:29:56.370Z,987.35
2019-02-03T08:30:56.287Z,987.39
2019-02-03T08:31:56.200Z,987.35
2019-02-03T08:32:56.117Z,987.39
2019-02-03T08:33:56.032Z,987.36
2019-02-03T08:34:55.947Z,987.41
2019-02-03T08:35:55.861Z,987.47
2019-02-03T08:36:55.777Z,987.52
2019-02-03T08:37:55.692Z,987.41
2019-02-03T08:38:55.607Z,987.51
2019-02-03T08:39:55.523Z,987.55
2019-02-03T08:40:55.438Z,987.66
2019-02-03T08:41:55.353Z,987.57
2019-02-03T08:42:56.003Z,987.62
2019-02-03T08:43:55.183Z,987.66
2019-02-03T08:44:55.098Z,987.67
2019-02-03T08:45:55.015Z,987.69
2019-02-03T08:46:54.929Z,987.74
2019-02-03T08:47:54.845Z,987.76
2019-02-03T08:48:54.762Z,987.76
2019-02-03T08:49:54.676Z,987.77
2019-02-03T08:50:54.591Z,987.79
2019-02-03T08:51:54.511Z,987.81
2019-02-03T08:52:54.422Z,987.84
2019-02-03T08:53:54.341Z,987.82
2019-02-03T08:54:58.517Z,987.82
2019-02-03T08:55:54.168Z,987.80
2019-02-03T08:56:54.087Z,987.81
2019-02-03T08:57:54.001Z,987.84
2019-02-03T08:58:53.916Z,987.81
2019-02-03T08:59:53.832Z,987.82
2019-02-03T09:00:53.747Z,987.80
2019-02-03T09:01:53.663Z,987.81
2019-02-03T09:02:53.578Z,987.76
2019-02-03T09:03:53.496Z,987.79
2019-02-03T09:04:53.410Z,987.78
2019-02-03T09:05:53.326Z,987.81
2019-02-03T09:06:53.242Z,987.83
2019-02-03T09:07:53.157Z,987.82
2019-02-03T09:08:53.076Z,987.86
2019-02-03T09:09:52.988Z,987.88
2019-02-03T09:10:53.900Z,987.88
2019-02-03T09:11:52.819Z,987.90
2019-02-03T09:12:52.736Z,987.90
2019-02-03T09:13:55.531Z,987.88
2019-02-03T09:14:52.566Z,987.88
2019-02-03T09:15:52.483Z,987.86
2019-02-03T09:16:52.416Z,987.90
2019-02-03T09:17:52.315Z,987.89
2019-02-03T09:18:52.231Z,987.86
2019-02-03T09:19:52.154Z,987.92
2019-02-03T09:20:52.062Z,987.90
2019-02-03T09:21:51.980Z,987.89
2019-02-03T09:22:51.895Z,987.94
2019-02-03T09:23:51.818Z,987.92
2019-02-03T09:24:51.726Z,987.95
2019-02-03T09:25:51.642Z,987.95
2019-02-03T09:26:51.559Z,987.94
2019-02-03T09:27:51.476Z,987.94
2019-02-03T09:28:51.393Z,988.00
2019-02-03T09:29:51.307Z,987.97
2019-02-03T09:30:51.222Z,987.97
2019-02-03T09:31:51.139Z,988.01
2019-02-03T09:32:51.056Z,987.99
2019-02-03T09:33:50.972Z,987.98
2019-02-03T09:34:50.887Z,987.97
2019-02-03T09:35:50.804Z,988.02
2019-02-03T09:36:50.721Z,987.96
2019-02-03T09:37:50.637Z,987.97
2019-02-03T09:38:50.552Z,988.02
2019-02-03T09:39:50.469Z,988.04
2019-02-03T09:40:59.690Z,988.08
2019-02-03T09:41:50.302Z,988.06
2019-02-03T09:42:50.218Z,988.10
2019-02-03T09:43:50.135Z,988.12
2019-02-03T09:44:50.052Z,988.15
2019-02-03T09:45:49.972Z,988.13
2019-02-03T09:46:49.884Z,988.15
2019-02-03T09:47:49.803Z,988.14
2019-02-03T09:48:49.720Z,988.14
2019-02-03T09:49:49.635Z,988.14
2019-02-03T09:50:49.551Z,988.17
2019-02-03T09:51:49.469Z,988.17
2019-02-03T09:52:49.385Z,988.16
2019-02-03T09:53:49.303Z,988.19
2019-02-03T09:54:50.174Z,988.13
2019-02-03T09:55:49.135Z,988.19
2019-02-03T09:56:49.053Z,988.21
2019-02-03T09:57:48.971Z,988.21
2019-02-03T09:58:48.888Z,988.24
2019-02-03T09:59:48.803Z,988.29
2019-02-03T10:00:48.720Z,988.33
2019-02-03T10:01:48.639Z,988.31
2019-02-03T10:02:48.556Z,988.38
2019-02-03T10:03:48.471Z,988.38
2019-02-03T10:04:48.389Z,988.40
2019-02-03T10:05:48.307Z,988.41
2019-02-03T10:06:48.223Z,988.46
2019-02-03T10:07:48.140Z,988.49
2019-02-03T10:08:48.058Z,988.44
2019-02-03T10:09:47.975Z,988.48
2019-02-03T10:10:47.892Z,988.47
2019-02-03T10:11:47.810Z,988.49
2019-02-03T10:12:47.726Z,988.55
2019-02-03T10:13:47.647Z,988.52
2019-02-03T10:14:47.560Z,988.56
2019-02-03T10:15:47.478Z,988.54
2019-02-03T10:16:47.687Z,988.55
2019-02-03T10:17:47.316Z,988.59
2019-02-03T10:18:47.234Z,988.61
2019-02-03T10:19:47.147Z,988.63
2019-02-03T10:20:47.063Z,988.63
2019-02-03T10:21:46.980Z,988.67
2019-02-03T10:22:46.897Z,988.67
2019-02-03T10:23:46.812Z,988.68
2019-02-03T10:24:46.730Z,988.69
2019-02-03T10:25:46.647Z,988.73
2019-02-03T10:26:46.562Z,988.72
2019-02-03T10:27:46.481Z,988.75
2019-02-03T10:28:46.808Z,988.74
2019-02-03T10:29:46.316Z,988.72
2019-02-03T10:30:46.232Z,988.75
2019-02-03T10:31:46.162Z,988.82
2019-02-03T10:32:46.062Z,988.81
2019-02-03T10:33:45.978Z,988.78
2019-02-03T10:34:45.895Z,988.80
2019-02-03T10:35:45.812Z,988.81
2019-02-03T10:36:45.728Z,988.83
2019-02-03T10:37:45.645Z,988.86
2019-02-03T10:38:45.563Z,988.87
2019-02-03T10:39:45.480Z,988.88
2019-02-03T10:40:45.393Z,988.86
2019-02-03T10:41:45.313Z,988.81
2019-02-03T10:42:45.231Z,988.85
2019-02-03T10:43:45.142Z,988.87
2019-02-03T10:44:45.092Z,988.85
2019-02-03T10:45:44.977Z,988.87
2019-02-03T10:46:44.891Z,988.91
2019-02-03T10:47:44.809Z,988.89
2019-02-03T10:48:44.725Z,988.88
2019-02-03T10:49:46.638Z,988.84
2019-02-03T10:50:44.558Z,988.83
2019-02-03T10:51:44.474Z,988.81
2019-02-03T10:52:44.391Z,988.85
2019-02-03T10:53:44.306Z,988.86
2019-02-03T10:54:44.222Z,988.89
2019-02-03T10:55:44.137Z,988.96
2019-02-03T10:56:44.055Z,988.95
2019-02-03T10:57:43.977Z,988.95
2019-02-03T10:58:43.887Z,988.98
2019-02-03T10:59:43.804Z,989.00
2019-02-03T11:00:43.723Z,989.03
2019-02-03T11:01:43.637Z,988.98
2019-02-03T11:02:43.557Z,989.01
2019-02-03T11:03:43.480Z,989.02
2019-02-03T11:04:43.387Z,988.98
2019-02-03T11:05:43.304Z,988.99
2019-02-03T11:06:43.218Z,988.95
2019-02-03T11:07:43.136Z,988.95
2019-02-03T11:08:43.074Z,988.97
2019-02-03T11:09:42.971Z,988.99
2019-02-03T11:10:42.884Z,989.05
2019-02-03T11:11:42.803Z,989.07
2019-02-03T11:12:42.720Z,989.06
2019-02-03T11:13:42.636Z,989.09
2019-02-03T11:14:42.551Z,989.09
2019-02-03T11:15:42.470Z,989.09
2019-02-03T11:16:42.388Z,989.13
2019-02-03T11:17:42.302Z,989.12
2019-02-03T11:18:42.219Z,989.13
2019-02-03T11:19:42.135Z,989.10
2019-02-03T11:20:42.052Z,989.16
2019-02-03T11:21:41.971Z,989.17
2019-02-03T11:22:41.887Z,989.17
2019-02-03T11:23:41.801Z,989.11
2019-02-03T11:24:41.718Z,989.13
2019-02-03T11:25:41.635Z,989.21
2019-02-03T11:26:41.551Z,989.20
2019-02-03T11:27:41.469Z,989.19
2019-02-03T11:28:41.384Z,989.18
2019-02-03T11:29:41.301Z,989.17
2019-02-03T11:30:41.217Z,989.27
2019-02-03T11:31:41.139Z,989.25
2019-02-03T11:32:41.051Z,989.22
2019-02-03T11:33:40.968Z,989.21
2019-02-03T11:34:40.883Z,989.32
2019-02-03T11:35:40.801Z,989.30
2019-02-03T11:36:40.718Z,989.29
2019-02-03T11:37:40.636Z,989.28
2019-02-03T11:38:40.550Z,989.22
2019-02-03T11:39:40.467Z,989.23
2019-02-03T11:40:40.384Z,989.23
2019-02-03T11:41:48.705Z,989.23
2019-02-03T11:42:40.219Z,989.23
2019-02-03T11:43:43.216Z,989.21
2019-02-03T11:44:40.052Z,989.27
2019-02-03T11:45:39.968Z,989.28
2019-02-03T11:46:39.887Z,989.27
2019-02-03T11:47:39.902Z,989.25
2019-02-03T11:48:39.717Z,989.28
2019-02-03T11:49:39.635Z,989.37
2019-02-03T11:50:39.553Z,989.36
2019-02-03T11:51:39.467Z,989.34
2019-02-03T11:52:39.386Z,989.41
2019-02-03T11:53:39.302Z,989.41
2019-02-03T11:54:39.218Z,989.39
2019-02-03T11:55:39.136Z,989.41
2019-02-03T11:56:39.052Z,989.43
2019-02-03T11:57:38.969Z,989.43
2019-02-03T11:58:38.886Z,989.49
2019-02-03T11:59:38.802Z,989.51
2019-02-03T12:00:38.724Z,989.53
2019-02-03T12:01:38.644Z,989.53
2019-02-03T12:02:42.076Z,989.56
2019-02-03T12:03:38.469Z,989.49
2019-02-03T12:04:38.385Z,989.47
2019-02-03T12:05:38.303Z,989.50
2019-02-03T12:06:38.218Z,989.53
2019-02-03T12:07:38.134Z,989.53
2019-02-03T12:08:38.053Z,989.52
2019-02-03T12:09:37.971Z,989.57
2019-02-03T12:10:37.886Z,989.53
2019-02-03T12:11:37.803Z,989.58
2019-02-03T12:12:37.720Z,989.61
2019-02-03T12:13:37.637Z,989.57
2019-02-03T12:14:37.553Z,989.62
2019-02-03T12:15:37.470Z,989.62
2019-02-03T12:16:37.389Z,989.67
2019-02-03T12:17:37.306Z,989.66
2019-02-03T12:18:37.222Z,989.70
2019-02-03T12:19:37.138Z,989.67
2019-02-03T12:20:37.058Z,989.72
2019-02-03T12:21:36.976Z,989.70
2019-02-03T12:22:36.888Z,989.64
2019-02-03T12:23:36.807Z,989.67
2019-02-03T12:24:36.723Z,989.67
2019-02-03T12:25:36.641Z,989.64
2019-02-03T12:26:36.686Z,989.68
2019-02-03T12:27:36.475Z,989.69